sensor_id;sensor_type;location;lat;lon;timestamp;P1;durP1;ratioP1;P2;durP2;ratioP2
3779;SDS011;1905;52.482;9.802;2024-03-07T00:01:40;14.87;;;8.20;;
3779;SDS011;1905;52.482;9.802;2024-03-07T00:04:07;20.33;;;8.97;;
3779;SDS011;1905;52.482;9.802;2024-03-07T00:06:36;18.70;;;8.67;;
3779;SDS011;1905;52.482;9.802;2024-03-07T00:09:05;17.00;;;7.30;;
3779;SDS011;1905;52.482;9.802;2024-03-07T00:11:36;12.43;;;6.90;;
3779;SDS011;1905;52.482;9.802;2024-03-07T00:14:05;17.07;;;7.70;;
3779;SDS011;1905;52.482;9.802;2024-03-07T00:16:35;15.30;;;7.80;;
3779;SDS011;1905;52.482;9.802;2024-03-07T00:19:04;13.93;;;7.70;;
3779;SDS011;1905;52.482;9.802;2024-03-07T00:21:33;20.50;;;7.40;;
3779;SDS011;1905;52.482;9.802;2024-03-07T00:24:01;17.20;;;7.00;;
3779;SDS011;1905;52.482;9.802;2024-03-07T00:26:32;13.93;;;7.40;;
3779;SDS011;1905;52.482;9.802;2024-03-07T00:29:00;16.67;;;7.23;;
3779;SDS011;1905;52.482;9.802;2024-03-07T00:31:29;14.43;;;6.93;;
3779;SDS011;1905;52.482;9.802;2024-03-07T00:33:59;18.03;;;7.33;;
3779;SDS011;1905;52.482;9.802;2024-03-07T00:36:42;15.43;;;6.77;;
3779;SDS011;1905;52.482;9.802;2024-03-07T00:39:10;16.70;;;7.10;;
3779;SDS011;1905;52.482;9.802;2024-03-07T00:41:38;15.03;;;7.33;;
3779;SDS011;1905;52.482;9.802;2024-03-07T00:44:07;17.90;;;7.20;;
3779;SDS011;1905;52.482;9.802;2024-03-07T00:46:36;16.80;;;7.27;;
3779;SDS011;1905;52.482;9.802;2024-03-07T00:49:06;17.73;;;7.20;;
3779;SDS011;1905;52.482;9.802;2024-03-07T00:51:35;17.47;;;8.17;;
3779;SDS011;1905;52.482;9.802;2024-03-07T00:54:06;17.70;;;7.07;;
3779;SDS011;1905;52.482;9.802;2024-03-07T00:56:34;17.37;;;7.20;;
3779;SDS011;1905;52.482;9.802;2024-03-07T00:59:04;19.53;;;7.53;;
3779;SDS011;1905;52.482;9.802;2024-03-07T01:01:33;19.60;;;8.80;;
3779;SDS011;1905;52.482;9.802;2024-03-07T01:04:03;17.07;;;8.43;;
3779;SDS011;1905;52.482;9.802;2024-03-07T01:06:32;16.90;;;6.90;;
3779;SDS011;1905;52.482;9.802;2024-03-07T01:09:00;13.33;;;7.33;;
3779;SDS011;1905;52.482;9.802;2024-03-07T01:11:29;16.57;;;8.63;;
3779;SDS011;1905;52.482;9.802;2024-03-07T01:13:58;19.33;;;8.37;;
3779;SDS011;1905;52.482;9.802;2024-03-07T01:16:26;17.10;;;7.30;;
3779;SDS011;1905;52.482;9.802;2024-03-07T01:18:54;16.43;;;7.90;;
3779;SDS011;1905;52.482;9.802;2024-03-07T01:21:22;13.57;;;6.90;;
3779;SDS011;1905;52.482;9.802;2024-03-07T01:23:54;21.00;;;7.50;;
3779;SDS011;1905;52.482;9.802;2024-03-07T01:26:22;17.83;;;7.73;;
3779;SDS011;1905;52.482;9.802;2024-03-07T01:28:51;14.30;;;6.70;;
3779;SDS011;1905;52.482;9.802;2024-03-07T01:31:21;14.57;;;6.87;;
3779;SDS011;1905;52.482;9.802;2024-03-07T01:33:49;15.00;;;6.63;;
3779;SDS011;1905;52.482;9.802;2024-03-07T01:36:18;15.00;;;7.77;;
3779;SDS011;1905;52.482;9.802;2024-03-07T01:38:46;16.60;;;6.77;;
3779;SDS011;1905;52.482;9.802;2024-03-07T01:41:16;18.97;;;7.87;;
3779;SDS011;1905;52.482;9.802;2024-03-07T01:43:47;21.13;;;8.63;;
3779;SDS011;1905;52.482;9.802;2024-03-07T01:46:15;15.13;;;6.80;;
3779;SDS011;1905;52.482;9.802;2024-03-07T01:48:44;17.77;;;8.07;;
3779;SDS011;1905;52.482;9.802;2024-03-07T01:51:13;22.80;;;7.87;;
3779;SDS011;1905;52.482;9.802;2024-03-07T01:53:42;22.10;;;7.50;;
3779;SDS011;1905;52.482;9.802;2024-03-07T01:56:12;14.60;;;7.40;;
3779;SDS011;1905;52.482;9.802;2024-03-07T01:58:42;16.30;;;6.73;;
3779;SDS011;1905;52.482;9.802;2024-03-07T02:01:11;17.00;;;7.20;;
3779;SDS011;1905;52.482;9.802;2024-03-07T02:03:41;13.73;;;6.97;;
3779;SDS011;1905;52.482;9.802;2024-03-07T02:06:09;13.00;;;7.20;;
3779;SDS011;1905;52.482;9.802;2024-03-07T02:08:39;16.10;;;8.20;;
3779;SDS011;1905;52.482;9.802;2024-03-07T02:11:07;17.40;;;8.17;;
3779;SDS011;1905;52.482;9.802;2024-03-07T02:13:36;18.73;;;8.30;;
3779;SDS011;1905;52.482;9.802;2024-03-07T02:16:07;15.13;;;6.80;;
3779;SDS011;1905;52.482;9.802;2024-03-07T02:18:35;18.50;;;6.73;;
3779;SDS011;1905;52.482;9.802;2024-03-07T02:21:07;15.77;;;7.70;;
3779;SDS011;1905;52.482;9.802;2024-03-07T02:23:38;19.67;;;8.00;;
3779;SDS011;1905;52.482;9.802;2024-03-07T02:26:08;14.00;;;7.27;;
3779;SDS011;1905;52.482;9.802;2024-03-07T02:28:36;15.07;;;7.20;;
3779;SDS011;1905;52.482;9.802;2024-03-07T02:31:05;19.40;;;7.77;;
3779;SDS011;1905;52.482;9.802;2024-03-07T02:33:33;15.70;;;6.67;;
3779;SDS011;1905;52.482;9.802;2024-03-07T02:36:02;16.03;;;7.60;;
3779;SDS011;1905;52.482;9.802;2024-03-07T02:38:33;19.73;;;9.27;;
3779;SDS011;1905;52.482;9.802;2024-03-07T02:41:01;18.10;;;7.87;;
3779;SDS011;1905;52.482;9.802;2024-03-07T02:43:31;18.00;;;9.20;;
3779;SDS011;1905;52.482;9.802;2024-03-07T02:45:59;15.80;;;8.00;;
3779;SDS011;1905;52.482;9.802;2024-03-07T02:48:28;17.50;;;8.53;;
3779;SDS011;1905;52.482;9.802;2024-03-07T02:50:56;19.73;;;8.63;;
3779;SDS011;1905;52.482;9.802;2024-03-07T02:53:25;18.20;;;8.30;;
3779;SDS011;1905;52.482;9.802;2024-03-07T02:55:55;15.40;;;7.27;;
3779;SDS011;1905;52.482;9.802;2024-03-07T02:58:23;14.53;;;7.50;;
3779;SDS011;1905;52.482;9.802;2024-03-07T03:00:56;18.10;;;9.10;;
3779;SDS011;1905;52.482;9.802;2024-03-07T03:03:25;19.13;;;9.50;;
3779;SDS011;1905;52.482;9.802;2024-03-07T03:05:53;19.80;;;8.27;;
3779;SDS011;1905;52.482;9.802;2024-03-07T03:08:22;16.73;;;8.17;;
3779;SDS011;1905;52.482;9.802;2024-03-07T03:10:50;15.77;;;7.03;;
3779;SDS011;1905;52.482;9.802;2024-03-07T03:13:20;21.70;;;8.30;;
3779;SDS011;1905;52.482;9.802;2024-03-07T03:15:49;20.00;;;8.27;;
3779;SDS011;1905;52.482;9.802;2024-03-07T03:18:17;23.13;;;10.00;;
3779;SDS011;1905;52.482;9.802;2024-03-07T03:20:46;19.00;;;8.53;;
3779;SDS011;1905;52.482;9.802;2024-03-07T03:23:15;21.30;;;9.80;;
3779;SDS011;1905;52.482;9.802;2024-03-07T03:25:47;20.73;;;11.50;;
3779;SDS011;1905;52.482;9.802;2024-03-07T03:28:17;18.40;;;8.93;;
3779;SDS011;1905;52.482;9.802;2024-03-07T03:30:48;15.60;;;8.20;;
3779;SDS011;1905;52.482;9.802;2024-03-07T03:33:17;20.20;;;9.10;;
3779;SDS011;1905;52.482;9.802;2024-03-07T03:35:47;22.47;;;9.97;;
3779;SDS011;1905;52.482;9.802;2024-03-07T03:38:15;19.57;;;9.57;;
3779;SDS011;1905;52.482;9.802;2024-03-07T03:40:46;19.27;;;10.20;;
3779;SDS011;1905;52.482;9.802;2024-03-07T03:43:15;18.63;;;10.50;;
3779;SDS011;1905;52.482;9.802;2024-03-07T03:45:43;22.60;;;10.70;;
3779;SDS011;1905;52.482;9.802;2024-03-07T03:48:13;20.20;;;10.83;;
3779;SDS011;1905;52.482;9.802;2024-03-07T03:50:42;21.67;;;10.50;;
3779;SDS011;1905;52.482;9.802;2024-03-07T03:53:13;21.07;;;9.53;;
3779;SDS011;1905;52.482;9.802;2024-03-07T03:55:42;20.00;;;11.43;;
3779;SDS011;1905;52.482;9.802;2024-03-07T03:58:10;21.20;;;9.90;;
3779;SDS011;1905;52.482;9.802;2024-03-07T04:00:39;19.70;;;10.00;;
3779;SDS011;1905;52.482;9.802;2024-03-07T04:03:07;24.37;;;9.97;;
3779;SDS011;1905;52.482;9.802;2024-03-07T04:05:37;24.40;;;11.00;;
3779;SDS011;1905;52.482;9.802;2024-03-07T04:08:08;22.07;;;11.50;;
3779;SDS011;1905;52.482;9.802;2024-03-07T04:10:37;26.30;;;13.10;;
3779;SDS011;1905;52.482;9.802;2024-03-07T04:13:10;27.23;;;11.27;;
3779;SDS011;1905;52.482;9.802;2024-03-07T04:15:40;19.67;;;10.80;;
3779;SDS011;1905;52.482;9.802;2024-03-07T04:18:10;22.63;;;10.93;;
3779;SDS011;1905;52.482;9.802;2024-03-07T04:20:40;20.60;;;10.40;;
3779;SDS011;1905;52.482;9.802;2024-03-07T04:23:11;18.57;;;9.90;;
3779;SDS011;1905;52.482;9.802;2024-03-07T04:25:39;22.93;;;10.70;;
3779;SDS011;1905;52.482;9.802;2024-03-07T04:28:08;24.20;;;12.43;;
3779;SDS011;1905;52.482;9.802;2024-03-07T04:30:37;19.67;;;10.77;;
3779;SDS011;1905;52.482;9.802;2024-03-07T04:33:05;23.07;;;11.07;;
3779;SDS011;1905;52.482;9.802;2024-03-07T04:35:33;26.30;;;10.80;;
3779;SDS011;1905;52.482;9.802;2024-03-07T04:38:04;24.23;;;11.17;;
3779;SDS011;1905;52.482;9.802;2024-03-07T04:40:36;22.83;;;11.33;;
3779;SDS011;1905;52.482;9.802;2024-03-07T04:43:04;24.17;;;11.57;;
3779;SDS011;1905;52.482;9.802;2024-03-07T04:45:34;30.10;;;13.40;;
3779;SDS011;1905;52.482;9.802;2024-03-07T04:48:03;22.80;;;11.40;;
3779;SDS011;1905;52.482;9.802;2024-03-07T04:50:33;26.07;;;11.57;;
3779;SDS011;1905;52.482;9.802;2024-03-07T04:53:01;27.60;;;13.57;;
3779;SDS011;1905;52.482;9.802;2024-03-07T04:55:31;30.37;;;12.27;;
3779;SDS011;1905;52.482;9.802;2024-03-07T04:57:59;23.33;;;11.50;;
3779;SDS011;1905;52.482;9.802;2024-03-07T05:00:28;24.70;;;11.70;;
3779;SDS011;1905;52.482;9.802;2024-03-07T05:02:57;25.60;;;12.50;;
3779;SDS011;1905;52.482;9.802;2024-03-07T05:05:25;31.93;;;12.37;;
3779;SDS011;1905;52.482;9.802;2024-03-07T05:07:53;31.50;;;14.77;;
3779;SDS011;1905;52.482;9.802;2024-03-07T05:10:23;28.80;;;12.63;;
3779;SDS011;1905;52.482;9.802;2024-03-07T05:12:55;32.07;;;13.30;;
3779;SDS011;1905;52.482;9.802;2024-03-07T05:15:25;26.33;;;12.47;;
3779;SDS011;1905;52.482;9.802;2024-03-07T05:17:54;30.80;;;12.43;;
3779;SDS011;1905;52.482;9.802;2024-03-07T05:20:23;30.47;;;12.97;;
3779;SDS011;1905;52.482;9.802;2024-03-07T05:22:51;27.87;;;12.17;;
3779;SDS011;1905;52.482;9.802;2024-03-07T05:25:20;36.03;;;14.40;;
3779;SDS011;1905;52.482;9.802;2024-03-07T05:27:49;37.17;;;14.63;;
3779;SDS011;1905;52.482;9.802;2024-03-07T05:30:19;43.73;;;15.63;;
3779;SDS011;1905;52.482;9.802;2024-03-07T05:32:50;33.83;;;15.70;;
3779;SDS011;1905;52.482;9.802;2024-03-07T05:35:22;41.00;;;16.40;;
3779;SDS011;1905;52.482;9.802;2024-03-07T05:37:51;33.90;;;14.03;;
3779;SDS011;1905;52.482;9.802;2024-03-07T05:40:23;41.70;;;15.70;;
3779;SDS011;1905;52.482;9.802;2024-03-07T05:42:51;41.70;;;17.17;;
3779;SDS011;1905;52.482;9.802;2024-03-07T05:45:21;34.90;;;14.97;;
3779;SDS011;1905;52.482;9.802;2024-03-07T05:47:50;36.53;;;17.60;;
3779;SDS011;1905;52.482;9.802;2024-03-07T05:50:19;37.47;;;15.53;;
3779;SDS011;1905;52.482;9.802;2024-03-07T05:52:47;43.77;;;18.87;;
3779;SDS011;1905;52.482;9.802;2024-03-07T05:55:16;49.40;;;18.70;;
3779;SDS011;1905;52.482;9.802;2024-03-07T05:57:46;44.80;;;18.83;;
3779;SDS011;1905;52.482;9.802;2024-03-07T06:00:15;41.70;;;18.80;;
3779;SDS011;1905;52.482;9.802;2024-03-07T06:02:56;48.13;;;19.43;;
3779;SDS011;1905;52.482;9.802;2024-03-07T06:05:25;40.10;;;17.47;;
3779;SDS011;1905;52.482;9.802;2024-03-07T06:07:54;42.33;;;18.10;;
3779;SDS011;1905;52.482;9.802;2024-03-07T06:10:24;37.90;;;20.17;;
3779;SDS011;1905;52.482;9.802;2024-03-07T06:12:52;41.43;;;18.07;;
3779;SDS011;1905;52.482;9.802;2024-03-07T06:15:36;46.60;;;19.20;;
3779;SDS011;1905;52.482;9.802;2024-03-07T06:18:07;46.77;;;18.37;;
3779;SDS011;1905;52.482;9.802;2024-03-07T06:20:38;45.20;;;17.10;;
3779;SDS011;1905;52.482;9.802;2024-03-07T06:23:08;61.57;;;19.13;;
3779;SDS011;1905;52.482;9.802;2024-03-07T06:25:39;43.43;;;18.10;;
3779;SDS011;1905;52.482;9.802;2024-03-07T06:28:14;55.90;;;19.70;;
3779;SDS011;1905;52.482;9.802;2024-03-07T06:30:43;52.03;;;19.30;;
3779;SDS011;1905;52.482;9.802;2024-03-07T06:33:15;48.07;;;19.00;;
3779;SDS011;1905;52.482;9.802;2024-03-07T06:35:48;46.83;;;18.90;;
3779;SDS011;1905;52.482;9.802;2024-03-07T06:38:18;54.27;;;22.30;;
3779;SDS011;1905;52.482;9.802;2024-03-07T06:40:48;52.80;;;19.50;;
3779;SDS011;1905;52.482;9.802;2024-03-07T06:43:17;44.20;;;19.33;;
3779;SDS011;1905;52.482;9.802;2024-03-07T06:45:45;48.43;;;20.10;;
3779;SDS011;1905;52.482;9.802;2024-03-07T06:48:15;50.63;;;18.60;;
3779;SDS011;1905;52.482;9.802;2024-03-07T06:50:44;43.73;;;19.13;;
3779;SDS011;1905;52.482;9.802;2024-03-07T06:53:13;61.80;;;21.00;;
3779;SDS011;1905;52.482;9.802;2024-03-07T06:55:42;47.27;;;20.87;;
3779;SDS011;1905;52.482;9.802;2024-03-07T06:58:10;42.93;;;18.50;;
3779;SDS011;1905;52.482;9.802;2024-03-07T07:00:39;57.67;;;18.80;;
3779;SDS011;1905;52.482;9.802;2024-03-07T07:03:07;51.27;;;20.50;;
3779;SDS011;1905;52.482;9.802;2024-03-07T07:05:40;54.63;;;23.97;;
3779;SDS011;1905;52.482;9.802;2024-03-07T07:08:09;48.10;;;18.80;;
3779;SDS011;1905;52.482;9.802;2024-03-07T07:10:37;52.77;;;20.47;;
3779;SDS011;1905;52.482;9.802;2024-03-07T07:13:07;53.07;;;19.80;;
3779;SDS011;1905;52.482;9.802;2024-03-07T07:15:36;51.77;;;20.07;;
3779;SDS011;1905;52.482;9.802;2024-03-07T07:18:04;50.13;;;20.50;;
3779;SDS011;1905;52.482;9.802;2024-03-07T07:20:34;48.63;;;20.63;;
3779;SDS011;1905;52.482;9.802;2024-03-07T07:23:04;43.97;;;19.90;;
3779;SDS011;1905;52.482;9.802;2024-03-07T07:25:36;46.90;;;20.97;;
3779;SDS011;1905;52.482;9.802;2024-03-07T07:28:07;45.53;;;18.97;;
3779;SDS011;1905;52.482;9.802;2024-03-07T07:30:41;46.87;;;17.97;;
3779;SDS011;1905;52.482;9.802;2024-03-07T07:33:14;50.90;;;23.30;;
3779;SDS011;1905;52.482;9.802;2024-03-07T07:35:45;47.63;;;20.67;;
3779;SDS011;1905;52.482;9.802;2024-03-07T07:38:15;47.07;;;18.97;;
3779;SDS011;1905;52.482;9.802;2024-03-07T07:40:44;46.93;;;19.43;;
3779;SDS011;1905;52.482;9.802;2024-03-07T07:43:16;46.90;;;20.80;;
3779;SDS011;1905;52.482;9.802;2024-03-07T07:46:02;47.50;;;21.20;;
3779;SDS011;1905;52.482;9.802;2024-03-07T07:48:31;36.07;;;16.03;;
3779;SDS011;1905;52.482;9.802;2024-03-07T07:51:01;46.27;;;17.97;;
3779;SDS011;1905;52.482;9.802;2024-03-07T07:53:34;42.93;;;18.60;;
3779;SDS011;1905;52.482;9.802;2024-03-07T07:56:04;40.00;;;16.47;;
3779;SDS011;1905;52.482;9.802;2024-03-07T07:58:33;39.23;;;17.87;;
3779;SDS011;1905;52.482;9.802;2024-03-07T08:01:02;38.50;;;17.80;;
3779;SDS011;1905;52.482;9.802;2024-03-07T08:03:31;35.60;;;15.20;;
3779;SDS011;1905;52.482;9.802;2024-03-07T08:06:02;39.33;;;14.73;;
3779;SDS011;1905;52.482;9.802;2024-03-07T08:08:32;42.77;;;17.87;;
3779;SDS011;1905;52.482;9.802;2024-03-07T08:11:03;40.83;;;18.40;;
3779;SDS011;1905;52.482;9.802;2024-03-07T08:13:31;41.10;;;17.03;;
3779;SDS011;1905;52.482;9.802;2024-03-07T08:16:00;45.93;;;19.50;;
3779;SDS011;1905;52.482;9.802;2024-03-07T08:18:32;38.30;;;17.70;;
3779;SDS011;1905;52.482;9.802;2024-03-07T08:21:01;40.50;;;17.80;;
3779;SDS011;1905;52.482;9.802;2024-03-07T08:23:33;42.50;;;16.10;;
3779;SDS011;1905;52.482;9.802;2024-03-07T08:26:04;42.30;;;17.63;;
3779;SDS011;1905;52.482;9.802;2024-03-07T08:28:33;48.40;;;16.87;;
3779;SDS011;1905;52.482;9.802;2024-03-07T08:31:05;51.83;;;20.00;;
3779;SDS011;1905;52.482;9.802;2024-03-07T08:33:36;38.83;;;17.30;;
3779;SDS011;1905;52.482;9.802;2024-03-07T08:36:04;43.13;;;17.53;;
3779;SDS011;1905;52.482;9.802;2024-03-07T08:38:37;35.47;;;15.23;;
3779;SDS011;1905;52.482;9.802;2024-03-07T08:41:09;34.13;;;14.90;;
3779;SDS011;1905;52.482;9.802;2024-03-07T08:43:44;37.53;;;15.57;;
3779;SDS011;1905;52.482;9.802;2024-03-07T08:46:14;33.23;;;16.27;;
3779;SDS011;1905;52.482;9.802;2024-03-07T08:48:43;41.70;;;18.03;;
3779;SDS011;1905;52.482;9.802;2024-03-07T08:51:12;33.63;;;15.43;;
3779;SDS011;1905;52.482;9.802;2024-03-07T08:53:46;40.20;;;16.20;;
3779;SDS011;1905;52.482;9.802;2024-03-07T08:56:26;38.70;;;15.83;;
3779;SDS011;1905;52.482;9.802;2024-03-07T08:58:54;30.13;;;14.50;;
3779;SDS011;1905;52.482;9.802;2024-03-07T09:01:23;32.03;;;15.47;;
3779;SDS011;1905;52.482;9.802;2024-03-07T09:03:55;40.17;;;16.17;;
3779;SDS011;1905;52.482;9.802;2024-03-07T09:06:26;36.27;;;15.20;;
3779;SDS011;1905;52.482;9.802;2024-03-07T09:09:04;37.70;;;14.90;;
3779;SDS011;1905;52.482;9.802;2024-03-07T09:11:43;34.73;;;13.97;;
3779;SDS011;1905;52.482;9.802;2024-03-07T09:14:21;30.87;;;14.07;;
3779;SDS011;1905;52.482;9.802;2024-03-07T09:16:55;32.97;;;14.27;;
3779;SDS011;1905;52.482;9.802;2024-03-07T09:19:25;33.97;;;13.07;;
3779;SDS011;1905;52.482;9.802;2024-03-07T09:21:58;33.30;;;13.43;;
3779;SDS011;1905;52.482;9.802;2024-03-07T09:24:26;25.93;;;12.60;;
3779;SDS011;1905;52.482;9.802;2024-03-07T09:26:56;33.40;;;13.10;;
3779;SDS011;1905;52.482;9.802;2024-03-07T09:29:28;30.03;;;12.10;;
3779;SDS011;1905;52.482;9.802;2024-03-07T09:31:57;29.97;;;13.50;;
3779;SDS011;1905;52.482;9.802;2024-03-07T09:34:35;31.67;;;11.80;;
3779;SDS011;1905;52.482;9.802;2024-03-07T09:37:09;32.67;;;13.90;;
3779;SDS011;1905;52.482;9.802;2024-03-07T09:39:38;33.80;;;14.40;;
3779;SDS011;1905;52.482;9.802;2024-03-07T09:42:08;29.73;;;13.50;;
3779;SDS011;1905;52.482;9.802;2024-03-07T09:44:38;30.90;;;13.20;;
3779;SDS011;1905;52.482;9.802;2024-03-07T09:47:08;28.50;;;13.20;;
3779;SDS011;1905;52.482;9.802;2024-03-07T09:49:38;30.57;;;12.90;;
3779;SDS011;1905;52.482;9.802;2024-03-07T09:52:08;32.50;;;13.67;;
3779;SDS011;1905;52.482;9.802;2024-03-07T09:54:43;32.90;;;12.43;;
3779;SDS011;1905;52.482;9.802;2024-03-07T09:57:13;32.37;;;13.97;;
3779;SDS011;1905;52.482;9.802;2024-03-07T09:59:42;32.23;;;12.90;;
3779;SDS011;1905;52.482;9.802;2024-03-07T10:02:13;32.13;;;16.07;;
3779;SDS011;1905;52.482;9.802;2024-03-07T10:04:48;30.10;;;12.83;;
3779;SDS011;1905;52.482;9.802;2024-03-07T10:07:19;34.13;;;14.50;;
3779;SDS011;1905;52.482;9.802;2024-03-07T10:09:50;33.50;;;14.97;;
3779;SDS011;1905;52.482;9.802;2024-03-07T10:12:24;33.10;;;15.30;;
3779;SDS011;1905;52.482;9.802;2024-03-07T10:14:55;33.87;;;13.13;;
3779;SDS011;1905;52.482;9.802;2024-03-07T10:17:28;44.50;;;17.03;;
3779;SDS011;1905;52.482;9.802;2024-03-07T10:19:57;41.33;;;15.10;;
3779;SDS011;1905;52.482;9.802;2024-03-07T10:22:27;38.07;;;15.00;;
3779;SDS011;1905;52.482;9.802;2024-03-07T10:24:59;35.33;;;14.33;;
3779;SDS011;1905;52.482;9.802;2024-03-07T10:27:29;35.50;;;15.67;;
3779;SDS011;1905;52.482;9.802;2024-03-07T10:29:59;29.13;;;13.33;;
3779;SDS011;1905;52.482;9.802;2024-03-07T10:32:28;33.53;;;13.87;;
3779;SDS011;1905;52.482;9.802;2024-03-07T10:35:01;32.67;;;14.17;;
3779;SDS011;1905;52.482;9.802;2024-03-07T10:37:34;39.00;;;15.43;;
3779;SDS011;1905;52.482;9.802;2024-03-07T10:40:03;27.20;;;14.03;;
3779;SDS011;1905;52.482;9.802;2024-03-07T10:42:45;34.73;;;14.50;;
3779;SDS011;1905;52.482;9.802;2024-03-07T10:45:18;42.03;;;13.67;;
3779;SDS011;1905;52.482;9.802;2024-03-07T10:47:50;35.83;;;13.83;;
3779;SDS011;1905;52.482;9.802;2024-03-07T10:50:30;40.73;;;16.00;;
3779;SDS011;1905;52.482;9.802;2024-03-07T10:53:08;33.40;;;14.97;;
3779;SDS011;1905;52.482;9.802;2024-03-07T10:55:47;41.63;;;17.13;;
3779;SDS011;1905;52.482;9.802;2024-03-07T10:58:37;34.90;;;13.90;;
3779;SDS011;1905;52.482;9.802;2024-03-07T11:01:10;41.10;;;15.77;;
3779;SDS011;1905;52.482;9.802;2024-03-07T11:03:41;31.10;;;14.33;;
3779;SDS011;1905;52.482;9.802;2024-03-07T11:06:10;38.20;;;15.53;;
3779;SDS011;1905;52.482;9.802;2024-03-07T11:08:42;45.13;;;16.63;;
3779;SDS011;1905;52.482;9.802;2024-03-07T11:11:14;35.30;;;14.60;;
3779;SDS011;1905;52.482;9.802;2024-03-07T11:13:49;39.17;;;16.53;;
3779;SDS011;1905;52.482;9.802;2024-03-07T11:16:20;37.40;;;14.90;;
3779;SDS011;1905;52.482;9.802;2024-03-07T11:21:48;41.17;;;15.73;;
3779;SDS011;1905;52.482;9.802;2024-03-07T11:24:23;38.87;;;14.87;;
3779;SDS011;1905;52.482;9.802;2024-03-07T11:26:53;39.90;;;15.40;;
3779;SDS011;1905;52.482;9.802;2024-03-07T11:32:21;29.70;;;13.33;;
3779;SDS011;1905;52.482;9.802;2024-03-07T11:34:54;40.00;;;16.80;;
3779;SDS011;1905;52.482;9.802;2024-03-07T11:37:37;32.40;;;14.23;;
3779;SDS011;1905;52.482;9.802;2024-03-07T11:40:13;35.47;;;14.93;;
3779;SDS011;1905;52.482;9.802;2024-03-07T11:43:02;34.63;;;15.07;;
3779;SDS011;1905;52.482;9.802;2024-03-07T11:45:34;33.50;;;15.60;;
3779;SDS011;1905;52.482;9.802;2024-03-07T11:48:06;45.10;;;17.23;;
3779;SDS011;1905;52.482;9.802;2024-03-07T11:50:36;52.20;;;16.37;;
3779;SDS011;1905;52.482;9.802;2024-03-07T11:53:07;30.90;;;15.30;;
3779;SDS011;1905;52.482;9.802;2024-03-07T11:55:37;37.80;;;16.30;;
3779;SDS011;1905;52.482;9.802;2024-03-07T11:58:12;36.33;;;17.40;;
3779;SDS011;1905;52.482;9.802;2024-03-07T12:00:45;32.47;;;13.50;;
3779;SDS011;1905;52.482;9.802;2024-03-07T12:03:14;37.53;;;14.97;;
3779;SDS011;1905;52.482;9.802;2024-03-07T12:05:46;36.97;;;15.57;;
3779;SDS011;1905;52.482;9.802;2024-03-07T12:08:16;30.37;;;14.90;;
3779;SDS011;1905;52.482;9.802;2024-03-07T12:10:51;29.87;;;13.33;;
3779;SDS011;1905;52.482;9.802;2024-03-07T12:13:25;34.70;;;14.37;;
3779;SDS011;1905;52.482;9.802;2024-03-07T12:15:59;37.17;;;15.50;;
3779;SDS011;1905;52.482;9.802;2024-03-07T12:18:35;27.43;;;13.60;;
3779;SDS011;1905;52.482;9.802;2024-03-07T12:21:04;37.53;;;15.80;;
3779;SDS011;1905;52.482;9.802;2024-03-07T12:23:37;31.03;;;13.53;;
3779;SDS011;1905;52.482;9.802;2024-03-07T12:26:08;30.20;;;13.13;;
3779;SDS011;1905;52.482;9.802;2024-03-07T12:28:47;29.43;;;12.97;;
3779;SDS011;1905;52.482;9.802;2024-03-07T12:31:32;28.07;;;13.03;;
3779;SDS011;1905;52.482;9.802;2024-03-07T12:34:02;27.10;;;13.00;;
3779;SDS011;1905;52.482;9.802;2024-03-07T12:36:31;33.23;;;12.97;;
3779;SDS011;1905;52.482;9.802;2024-03-07T12:39:21;33.20;;;13.93;;
3779;SDS011;1905;52.482;9.802;2024-03-07T12:41:53;31.03;;;13.70;;
3779;SDS011;1905;52.482;9.802;2024-03-07T12:44:22;37.27;;;13.67;;
3779;SDS011;1905;52.482;9.802;2024-03-07T12:46:52;30.30;;;11.97;;
3779;SDS011;1905;52.482;9.802;2024-03-07T12:49:22;30.40;;;12.13;;
3779;SDS011;1905;52.482;9.802;2024-03-07T12:51:54;35.67;;;12.63;;
3779;SDS011;1905;52.482;9.802;2024-03-07T12:54:22;30.07;;;14.03;;
3779;SDS011;1905;52.482;9.802;2024-03-07T12:56:51;32.10;;;12.43;;
3779;SDS011;1905;52.482;9.802;2024-03-07T12:59:20;29.67;;;13.33;;
3779;SDS011;1905;52.482;9.802;2024-03-07T13:01:52;31.37;;;13.83;;
3779;SDS011;1905;52.482;9.802;2024-03-07T13:04:21;31.27;;;13.27;;
3779;SDS011;1905;52.482;9.802;2024-03-07T13:06:52;32.60;;;13.13;;
3779;SDS011;1905;52.482;9.802;2024-03-07T13:09:20;27.93;;;11.90;;
3779;SDS011;1905;52.482;9.802;2024-03-07T13:11:53;28.60;;;14.13;;
3779;SDS011;1905;52.482;9.802;2024-03-07T13:14:22;30.07;;;14.57;;
3779;SDS011;1905;52.482;9.802;2024-03-07T13:16:52;27.73;;;12.50;;
3779;SDS011;1905;52.482;9.802;2024-03-07T13:19:20;34.80;;;14.50;;
3779;SDS011;1905;52.482;9.802;2024-03-07T13:21:49;28.67;;;12.43;;
3779;SDS011;1905;52.482;9.802;2024-03-07T13:24:20;27.33;;;12.80;;
3779;SDS011;1905;52.482;9.802;2024-03-07T13:26:49;29.50;;;12.47;;
3779;SDS011;1905;52.482;9.802;2024-03-07T13:29:18;22.57;;;12.03;;
3779;SDS011;1905;52.482;9.802;2024-03-07T13:31:52;26.73;;;11.73;;
3779;SDS011;1905;52.482;9.802;2024-03-07T13:34:23;29.80;;;14.40;;
3779;SDS011;1905;52.482;9.802;2024-03-07T13:36:53;30.13;;;12.53;;
3779;SDS011;1905;52.482;9.802;2024-03-07T13:39:25;26.30;;;10.53;;
3779;SDS011;1905;52.482;9.802;2024-03-07T13:41:54;32.70;;;13.93;;
3779;SDS011;1905;52.482;9.802;2024-03-07T13:44:23;28.83;;;13.47;;
3779;SDS011;1905;52.482;9.802;2024-03-07T13:46:55;25.77;;;10.67;;
3779;SDS011;1905;52.482;9.802;2024-03-07T13:49:29;27.00;;;11.47;;
3779;SDS011;1905;52.482;9.802;2024-03-07T13:51:57;24.67;;;10.40;;
3779;SDS011;1905;52.482;9.802;2024-03-07T13:54:37;26.10;;;11.50;;
3779;SDS011;1905;52.482;9.802;2024-03-07T13:57:21;27.70;;;11.57;;
3779;SDS011;1905;52.482;9.802;2024-03-07T13:59:59;24.00;;;10.77;;
3779;SDS011;1905;52.482;9.802;2024-03-07T14:03:04;24.97;;;9.60;;
3779;SDS011;1905;52.482;9.802;2024-03-07T14:05:59;24.23;;;11.43;;
3779;SDS011;1905;52.482;9.802;2024-03-07T14:18:14;28.27;;;11.43;;
3779;SDS011;1905;52.482;9.802;2024-03-07T14:21:10;23.57;;;11.20;;
3779;SDS011;1905;52.482;9.802;2024-03-07T14:24:06;27.77;;;10.40;;
3779;SDS011;1905;52.482;9.802;2024-03-07T14:26:56;25.57;;;10.37;;
3779;SDS011;1905;52.482;9.802;2024-03-07T14:29:47;23.00;;;10.70;;
3779;SDS011;1905;52.482;9.802;2024-03-07T14:32:19;23.73;;;11.00;;
3779;SDS011;1905;52.482;9.802;2024-03-07T14:34:59;23.40;;;11.40;;
3779;SDS011;1905;52.482;9.802;2024-03-07T14:37:34;26.03;;;10.93;;
3779;SDS011;1905;52.482;9.802;2024-03-07T14:40:08;25.30;;;11.40;;
3779;SDS011;1905;52.482;9.802;2024-03-07T14:42:41;20.03;;;10.57;;
3779;SDS011;1905;52.482;9.802;2024-03-07T14:45:12;27.23;;;10.67;;
3779;SDS011;1905;52.482;9.802;2024-03-07T14:47:46;23.40;;;11.20;;
3779;SDS011;1905;52.482;9.802;2024-03-07T14:50:19;30.03;;;11.97;;
3779;SDS011;1905;52.482;9.802;2024-03-07T14:52:48;24.23;;;11.10;;
3779;SDS011;1905;52.482;9.802;2024-03-07T14:55:17;27.60;;;11.47;;
3779;SDS011;1905;52.482;9.802;2024-03-07T14:57:46;27.73;;;12.30;;
3779;SDS011;1905;52.482;9.802;2024-03-07T15:00:14;23.53;;;11.20;;
3779;SDS011;1905;52.482;9.802;2024-03-07T15:02:49;27.70;;;11.40;;
3779;SDS011;1905;52.482;9.802;2024-03-07T15:05:20;25.83;;;12.27;;
3779;SDS011;1905;52.482;9.802;2024-03-07T15:07:48;30.13;;;11.70;;
3779;SDS011;1905;52.482;9.802;2024-03-07T15:10:18;22.30;;;10.63;;
3779;SDS011;1905;52.482;9.802;2024-03-07T15:12:50;21.47;;;10.27;;
3779;SDS011;1905;52.482;9.802;2024-03-07T15:15:19;24.73;;;11.00;;
3779;SDS011;1905;52.482;9.802;2024-03-07T15:17:51;20.33;;;10.13;;
3779;SDS011;1905;52.482;9.802;2024-03-07T15:20:21;30.13;;;12.80;;
3779;SDS011;1905;52.482;9.802;2024-03-07T15:22:50;23.27;;;11.67;;
3779;SDS011;1905;52.482;9.802;2024-03-07T15:25:20;24.30;;;10.67;;
3779;SDS011;1905;52.482;9.802;2024-03-07T15:27:50;22.37;;;11.57;;
3779;SDS011;1905;52.482;9.802;2024-03-07T15:30:24;25.87;;;10.13;;